TKPK METAR and TAF | Updated Today

TKPK METAR

Robert L. Bradshaw International Airport

Observation time: 21 min. ago

TKPK 052000Z 06017KT 9999 FEW022 27/20 Q1018

Need help? Read our tutorial on how to read METARs or read the parsed version below.

Robert L. Bradshaw International Airport (TKPK) METAR

  • Weather conditions on Sun, 05 Feb 2023 20:00:00 +0000 (21 min. ago):
  • Present conditions: Dry
  • Clouds: A few at 671 meters
  • Visibility: Greater than 10 km
  • Wind: 60 degrees at 17 knots
  • Temperature: 27 celsius
  • Dew point: 20 celsius
  • Pressure: 1018 millibars
  • Remarks: None


Useful to know...

TKPK TAF

Robert L. Bradshaw International Airport

TAF TKPK 051700Z 0518/0618 08015KT 9999 SCT019 PROB30 TEMPO 0604/0612 08015G25KT SHRA
Observation time: 3:21 hr. ago
Need help? Read our tutorial on how to read TAFs or read the parsed version below.

Parsed version of TAF for Robert L. Bradshaw International Airport (TKPK)

  • From 05 February at 18:00 UTC, to day 06 of the month at 18:00 UTC
  • Clouds: Scattered at 579 meters
  • Visibility: Greater than 10 km
  • Wind: 80 degrees at 15
  • Expected to arise temporarily, from 06 February at 04:00 UTC, to day 06 of the month at 12:00 UTC
    Probability of 30%
  • Wind: 80 degrees at 15
  • Other: Showers of rain